Latest Weather Observations for Perth Airport

IDW60801

Issued at 10:32 am WST Saturday 29 August 2015 (issued every 30 minutes, with the page automatically refreshed every 10 minutes)

About weather observations | Map of weather stations | Latest weather observations for WA | Other Formats
Station Details ID: 009021 Name: PERTH AIRPORT Lat: -31.93 Lon: 115.98 Height: 15.4 m
Data from the previous 72 hours. | See also: Recent months at Perth Airport
Date/Time
WST
Temp
°C
App
Temp
°C
Dew
Point
Rel
Hum
%
Delta-T
°C
Wind Press
QNH
hPa
Press
MSL
hPa
Rain
since 9 am
mm
Dir
 
Spd
km/h
Gust
km/h
Spd
kts
Gust
kts
29/10:30am 19.9 15.9 14.0 69 3.4 N 28 37 15 20 1013.3 - 0.0
29/10:00am 18.8 15.0 13.5 71 3.0 N 26 32 14 17 1013.6 - 0.0
29/09:30am 17.7 14.6 13.3 75 2.5 N 22 32 12 17 1014.1 - 0.0
29/09:00am 16.7 13.2 13.3 80 1.9 NNE 24 30 13 16 1014.1 1014.1 1.2
29/08:30am 16.5 13.9 13.8 84 1.5 NNE 20 28 11 15 1014.0 - 1.2
29/08:00am 14.6 13.2 13.5 93 0.6 NNE 13 15 7 8 1014.2 - 1.2
29/07:53am 14.0 12.5 13.1 94 0.5 NNE 13 13 7 7 1014.3 - 1.2
29/07:30am 13.1 12.1 12.4 95 0.4 NNE 9 13 5 7 1014.0 - 1.2
29/07:00am 12.1 10.2 11.7 97 0.2 NNE 13 13 7 7 1013.7 - 1.2
29/06:52am 12.2 10.7 11.8 97 0.2 NNE 11 13 6 7 1013.6 - 1.2
29/06:30am 12.2 10.7 11.8 97 0.2 NNE 11 15 6 8 1013.3 - 1.2
29/06:00am 12.4 11.3 12.0 97 0.2 NNE 9 11 5 6 1013.0 1013.0 1.2
29/05:30am 12.4 11.4 12.2 99 0.1 NNE 9 9 5 5 1013.1 - 1.2
29/05:00am 12.0 10.4 11.6 97 0.2 NNE 11 11 6 6 1013.0 - 1.2
29/04:57am 11.7 10.0 11.3 97 0.2 N 11 11 6 6 1013.0 - 1.2
29/04:30am 11.1 9.7 10.9 99 0.1 N 9 11 5 6 1013.1 - 1.2
29/04:22am 11.6 10.3 11.4 99 0.1 N 9 11 5 6 1013.0 - 1.2
29/04:00am 11.8 10.6 11.6 99 0.1 N 9 11 5 6 1013.2 - 1.2
29/03:30am 12.3 11.2 11.9 97 0.2 N 9 11 5 6 1013.4 - 1.2
29/03:00am 12.3 11.1 11.7 96 0.3 NNE 9 13 5 7 1013.7 1013.7 1.2
29/02:30am 11.8 10.2 11.6 99 0.1 NNE 11 13 6 7 1013.9 - 1.2
29/02:10am 12.2 10.6 11.6 96 0.3 N 11 13 6 7 1014.1 - 1.2
29/02:00am 12.1 10.9 11.5 96 0.3 N 9 11 5 6 1014.2 - 1.2
29/01:30am 12.5 11.9 12.3 99 0.1 N 7 9 4 5 1014.5 - 1.2
29/01:00am 13.5 12.4 13.0 97 0.3 NNE 11 13 6 7 1014.6 - 1.2
29/12:30am 13.6 12.5 13.1 97 0.3 NNE 11 13 6 7 1015.0 - 1.2
29/12:00am 13.7 13.4 13.2 97 0.3 NNE 7 11 4 6 1015.0 1015.0 1.2
 
Date/Time
WST
Temp
°C
App
Temp
°C
Dew
Point
Rel
Hum
%
Delta-T
°C
Wind Press
QNH
hPa
Press
MSL
hPa
Rain
since 9 am
mm
Dir
 
Spd
km/h
Gust
km/h
Spd
kts
Gust
kts
28/11:30pm 14.3 13.7 13.6 96 0.4 NNE 9 11 5 6 1015.2 - 1.2
28/11:00pm 14.2 13.2 13.5 96 0.4 NNE 11 15 6 8 1015.6 - 1.2
28/10:30pm 14.8 13.6 13.9 94 0.5 NNE 13 20 7 11 1015.9 - 1.2
28/10:00pm 14.9 13.6 13.8 93 0.6 N 13 15 7 8 1015.9 - 1.2
28/09:30pm 14.5 13.2 13.8 96 0.4 N 13 13 7 7 1016.3 - 1.2
28/09:00pm 14.1 13.4 13.2 94 0.5 N 9 11 5 6 1016.3 1016.3 1.2
28/08:30pm 13.7 12.8 12.6 93 0.6 N 9 11 5 6 1016.2 - 1.2
28/08:00pm 14.8 14.7 13.4 91 0.8 N 6 7 3 4 1015.9 - 1.2
28/07:30pm 15.6 15.7 13.8 89 1.0 N 6 7 3 4 1015.7 - 1.2
28/07:00pm 16.5 16.6 14.0 85 1.4 N 6 9 3 5 1015.5 - 1.2
28/06:30pm 17.8 17.4 14.1 79 2.1 WNW 9 13 5 7 1015.3 - 1.2
28/06:00pm 18.4 17.7 14.2 76 2.4 W 11 15 6 8 1015.0 1015.0 1.2
28/05:30pm 19.0 17.8 13.9 72 2.9 W 13 19 7 10 1014.7 - 1.2
28/05:00pm 19.6 18.4 13.9 69 3.3 WNW 13 19 7 10 1014.6 - 1.2
28/04:30pm 19.9 17.9 13.8 68 3.5 WNW 17 22 9 12 1014.5 - 1.2
28/04:00pm 20.2 18.7 14.3 69 3.4 NW 15 22 8 12 1014.4 - 1.2
28/03:30pm 20.2 18.0 14.5 69 3.3 WNW 19 26 10 14 1014.4 - 1.2
28/03:00pm 20.9 17.6 14.0 64 4.0 NW 24 32 13 17 1014.3 1014.3 1.2
28/02:30pm 20.8 18.4 14.5 67 3.7 WNW 20 33 11 18 1014.3 - 1.2
28/02:00pm 21.2 17.6 14.2 64 4.1 WNW 26 33 14 18 1014.4 - 1.2
28/01:30pm 21.1 17.6 14.4 65 3.9 NW 26 35 14 19 1014.5 - 1.2
28/01:00pm 21.0 17.2 14.7 67 3.7 NW 28 39 15 21 1014.9 - 1.2
28/12:30pm 19.6 18.1 15.4 77 2.5 NW 17 28 9 15 1015.2 - 1.2
28/12:00pm 18.0 18.4 16.3 90 1.0 W 9 17 5 9 1015.8 1015.8 1.0
28/11:56am 17.9 17.5 16.2 90 1.0 W 13 22 7 12 1015.8 - 1.0
28/11:44am 18.0 17.2 16.0 88 1.2 W 15 19 8 10 1015.7 - 1.0
28/11:30am 17.5 17.3 15.8 90 1.0 WNW 11 17 6 9 1015.9 - 0.8
28/11:19am 18.7 17.7 14.6 77 2.4 W 13 17 7 9 1015.9 - 0.0
28/11:00am 19.2 17.5 13.6 70 3.2 NNW 15 20 8 11 1015.8 - 0.0
28/10:30am 20.3 19.1 14.1 67 3.6 N 13 15 7 8 1016.1 - 0.0
28/10:00am 19.9 18.4 14.2 69 3.3 NNE 15 24 8 13 1016.1 - 0.0
28/09:30am 18.3 16.2 13.7 74 2.6 N 17 20 9 11 1016.4 - 0.0
28/09:00am 18.2 16.2 13.8 75 2.5 N 17 22 9 12 1016.2 1016.2 0.0
28/08:30am 16.5 14.8 13.5 82 1.7 N 15 19 8 10 1016.2 - 0.0
28/08:00am 15.3 13.4 13.1 87 1.2 N 15 19 8 10 1016.0 - 0.0
28/07:30am 13.7 12.0 12.6 93 0.6 NNE 13 17 7 9 1015.7 - 0.0
28/07:00am 12.9 11.5 12.2 95 0.4 NNE 11 13 6 7 1015.6 - 0.0
28/06:30am 12.7 10.9 12.0 95 0.4 NNE 13 15 7 8 1015.5 - 0.0
28/06:00am 12.5 10.9 11.7 95 0.4 NNE 11 11 6 6 1015.3 1015.3 0.0
28/05:30am 12.8 11.7 11.9 94 0.5 NNE 9 11 5 6 1015.2 - 0.0
28/05:00am 13.0 11.1 11.9 93 0.6 N 13 17 7 9 1015.2 - 0.0
28/04:30am 12.8 10.9 11.7 93 0.6 N 13 17 7 9 1015.0 - 0.0
28/04:00am 12.7 10.7 11.6 93 0.6 N 13 15 7 8 1014.8 - 0.0
28/03:30am 13.1 11.2 11.8 92 0.7 N 13 19 7 10 1014.8 - 0.0
28/03:00am 13.2 11.3 11.9 92 0.7 N 13 15 7 8 1015.0 1015.0 0.0
28/02:30am 13.2 11.3 11.9 92 0.7 N 13 17 7 9 1015.1 - 0.0
28/02:00am 13.7 11.6 12.4 92 0.7 N 15 19 8 10 1015.0 - 0.0
28/01:30am 14.4 12.0 12.6 89 1.0 N 17 19 9 10 1015.1 - 0.0
28/01:00am 15.0 12.6 12.8 87 1.2 N 17 20 9 11 1014.9 - 0.0
28/12:30am 14.8 13.0 13.2 90 0.9 N 15 17 8 9 1015.0 - 0.0
28/12:00am 15.3 13.5 13.3 88 1.1 NNE 15 17 8 9 1014.9 1014.9 0.0
 
Date/Time
WST
Temp
°C
App
Temp
°C
Dew
Point
Rel
Hum
%
Delta-T
°C
Wind Press
QNH
hPa
Press
MSL
hPa
Rain
since 9 am
mm
Dir
 
Spd
km/h
Gust
km/h
Spd
kts
Gust
kts
27/11:30pm 15.9 14.6 13.6 86 1.3 N 13 15 7 8 1015.0 - 0.0
27/11:00pm 15.5 13.8 12.6 83 1.6 NNE 13 17 7 9 1014.9 - 0.0
27/10:53pm 15.2 13.5 12.3 83 1.6 NNE 13 20 7 11 1014.9 - 0.0
27/10:44pm 15.4 13.6 12.1 81 1.8 NE 13 17 7 9 1014.8 - 0.0
27/10:30pm 15.7 13.2 11.2 74 2.4 NE 15 26 8 14 1015.0 - 0.0
27/10:16pm 15.1 13.0 9.9 71 2.7 NE 11 13 6 7 1015.2 - 0.0
27/10:00pm 14.6 11.9 9.1 69 2.8 NE 13 13 7 7 1015.2 - 0.0
27/09:30pm 15.2 12.1 8.7 65 3.3 NNE 15 17 8 9 1015.3 - 0.0
27/09:00pm 14.9 12.3 7.9 63 3.5 NNE 11 11 6 6 1015.3 1015.3 0.0
27/08:30pm 14.7 11.8 8.1 64 3.3 N 13 15 7 8 1015.2 - 0.0
27/08:00pm 14.9 12.8 8.1 64 3.4 N 9 11 5 6 1014.7 - 0.0
27/07:30pm 17.0 14.8 7.7 54 4.7 NW 9 15 5 8 1014.5 - 0.0
27/07:00pm 18.6 16.1 8.1 50 5.4 NW 11 13 6 7 1014.2 - 0.0
27/06:30pm 19.4 16.6 6.9 44 6.3 N 11 17 6 9 1013.8 - 0.0
27/06:00pm 21.3 18.0 6.5 38 7.5 ENE 13 17 7 9 1013.5 1013.5 0.0
27/05:30pm 22.6 18.4 5.7 33 8.5 ENE 17 28 9 15 1013.3 - 0.0
27/05:00pm 23.6 19.3 5.3 30 9.2 NE 17 22 9 12 1013.5 - 0.0
27/04:30pm 23.8 19.0 4.7 29 9.5 NNE 19 26 10 14 1013.6 - 0.0
27/04:00pm 23.6 18.8 5.6 31 9.1 NNE 20 32 11 17 1013.6 - 0.0
27/03:30pm 24.9 20.3 5.7 29 9.8 NE 19 28 10 15 1013.5 - 0.0
27/03:00pm 24.6 19.0 5.2 28 9.8 NNE 24 33 13 18 1013.8 1013.8 0.0
27/02:30pm 24.6 18.3 5.5 29 9.7 NE 28 33 15 18 1013.7 - 0.0
27/02:00pm 24.2 17.9 3.9 26 10.0 NE 26 35 14 19 1013.8 - 0.0
27/01:30pm 24.7 18.5 2.1 23 10.8 NNE 24 35 13 19 1013.9 - 0.0
27/01:00pm 24.4 19.0 2.5 24 10.5 NE 20 28 11 15 1014.3 - 0.0
27/12:30pm 24.4 18.6 2.2 23 10.6 ENE 22 30 12 16 1015.0 - 0.0
27/12:00pm 23.6 18.4 2.7 25 10.0 E 19 24 10 13 1015.6 1015.6 0.0
27/11:30am 22.9 18.0 5.0 31 8.9 E 20 30 11 16 1016.5 - 0.0
27/11:00am 21.1 16.8 5.3 35 7.8 E 17 26 9 14 1017.2 - 0.0
27/10:30am 20.4 15.4 3.6 33 8.0 ENE 19 26 10 14 1017.5 - 0.0
27/10:00am 18.9 14.0 4.2 37 7.0 E 19 22 10 12 1017.8 - 0.0
27/09:30am 17.4 11.5 3.9 40 6.3 ENE 24 30 13 16 1018.2 - 0.0
27/09:00am 15.8 10.2 3.3 43 5.7 ENE 22 28 12 15 1018.4 1018.4 0.0
27/08:30am 15.1 9.1 3.1 44 5.4 ENE 24 37 13 20 1018.5 - 0.0
27/08:00am 13.7 8.0 2.6 47 4.9 ENE 22 28 12 15 1018.5 - 0.0
27/07:30am 12.7 7.9 2.6 50 4.4 ENE 17 22 9 12 1018.3 - 0.0
27/07:00am 11.7 6.3 2.7 54 3.9 ENE 20 28 11 15 1018.0 - 0.0
27/06:30am 11.7 6.0 2.7 54 3.9 ENE 22 30 12 16 1017.8 - 0.0
27/06:00am 12.0 5.9 2.5 52 4.1 ENE 24 33 13 18 1017.7 1017.7 0.0
27/05:30am 12.1 5.6 2.7 52 4.1 ENE 26 32 14 17 1017.5 - 0.0
27/05:00am 12.4 6.3 2.5 51 4.3 ENE 24 32 13 17 1017.4 - 0.0
27/04:30am 12.3 6.6 3.0 53 4.1 ENE 22 32 12 17 1017.5 - 0.0
27/04:00am 12.3 6.2 3.0 53 4.1 ENE 24 32 13 17 1017.6 - 0.0
27/03:30am 12.7 6.6 2.9 51 4.3 ENE 24 32 13 17 1017.8 - 0.0
27/03:00am 12.7 6.7 3.2 52 4.2 ENE 24 33 13 18 1018.0 1018.0 0.0
27/02:30am 12.7 6.7 3.2 52 4.2 ENE 24 32 13 17 1018.3 - 0.0
27/02:00am 12.9 7.7 3.5 53 4.2 ENE 20 28 11 15 1018.6 - 0.0
27/01:30am 13.2 8.2 3.6 52 4.3 ENE 19 22 10 12 1018.8 - 0.0
27/01:00am 13.6 8.7 4.2 53 4.3 ENE 19 26 10 14 1018.9 - 0.0
27/12:30am 14.1 9.6 4.3 51 4.5 E 17 24 9 13 1018.9 - 0.0
27/12:00am 14.3 9.8 4.0 50 4.7 E 17 20 9 11 1019.0 1019.0 0.0
 
Date/Time
WST
Temp
°C
App
Temp
°C
Dew
Point
Rel
Hum
%
Delta-T
°C
Wind Press
QNH
hPa
Press
MSL
hPa
Rain
since 9 am
mm
Dir
 
Spd
km/h
Gust
km/h
Spd
kts
Gust
kts
26/11:30pm 13.8 9.7 4.4 53 4.3 E 15 19 8 10 1019.2 - 0.0
26/11:00pm 14.0 10.2 4.1 51 4.5 ENE 13 15 7 8 1019.4 - 0.0
26/10:30pm 14.3 10.1 3.7 49 4.8 ENE 15 19 8 10 1019.6 - 0.0
26/10:00pm 14.8 11.0 3.9 48 5.0 ENE 13 17 7 9 1019.7 - 0.0
26/09:30pm 15.1 11.3 4.0 47 5.1 ENE 13 17 7 9 1019.9 - 0.0
26/09:00pm 14.8 11.6 5.0 52 4.6 ENE 11 15 6 8 1019.9 1019.9 0.0
26/08:30pm 15.3 11.3 5.1 50 4.8 ENE 15 17 8 9 1020.0 - 0.0
26/08:00pm 15.7 11.8 5.4 50 4.9 E 15 17 8 9 1019.9 - 0.0
26/07:30pm 16.1 12.6 5.4 49 5.1 E 13 17 7 9 1019.9 - 0.0
26/07:00pm 16.4 13.1 6.3 51 4.9 E 13 20 7 11 1019.7 - 0.0
26/06:30pm 16.5 13.4 7.2 54 4.6 E 13 15 7 8 1019.7 - 0.0
26/06:00pm 16.9 13.9 7.5 54 4.7 E 13 15 7 8 1019.7 1019.7 0.0
26/05:30pm 18.2 15.7 6.5 46 5.8 NNE 9 9 5 5 1019.4 - 0.0
26/05:00pm 20.1 17.0 3.7 34 7.8 NNE 9 11 5 6 1019.2 - 0.0
26/04:30pm 19.9 16.5 4.0 35 7.6 N 11 13 6 7 1019.1 - 0.0
26/04:00pm 20.9 16.7 1.8 28 8.8 N 13 17 7 9 1019.0 - 0.0
26/03:30pm 20.8 16.1 1.2 27 8.9 NNE 15 17 8 9 1019.0 - 0.0
26/03:00pm 20.4 15.9 1.9 29 8.5 NNE 15 24 8 13 1019.0 1019.0 0.0
26/02:30pm 20.8 14.9 1.9 28 8.7 NNE 22 30 12 16 1018.9 - 0.0
26/02:00pm 20.8 15.4 2.6 30 8.5 NNE 20 26 11 14 1019.0 - 0.0
26/01:30pm 20.6 14.7 1.9 29 8.6 NNE 22 32 12 17 1019.3 - 0.0
26/01:00pm 20.8 15.0 2.3 29 8.6 NNE 22 30 12 16 1019.7 - 0.0
26/12:30pm 20.5 15.1 2.4 30 8.4 N 20 32 11 17 1020.3 - 0.0
26/12:00pm 20.0 13.6 3.2 33 7.9 NNE 26 32 14 17 1020.8 1020.8 0.0
26/11:30am 19.1 14.2 4.2 37 7.1 NNE 19 28 10 15 1021.2 - 0.0
26/11:00am 18.3 12.6 4.7 40 6.5 NNE 24 32 13 17 1021.5 - 0.0

Other Formats:

Comma delimited format used in spreadsheet applications
http://www.bom.gov.au/fwo/IDW60801/IDW60801.94610.axf

JavaScript Object Notation format (JSON) in row-major order
http://www.bom.gov.au/fwo/IDW60801/IDW60801.94610.json